createdAt,value
2018-12-10T00:01:35.153Z,92.40
2018-12-10T00:03:41.783Z,92.30
2018-12-10T00:05:49.541Z,92.40
2018-12-10T00:07:56.995Z,92.20
2018-12-10T00:10:06.933Z,92.30
2018-12-10T00:12:12.213Z,92.00
2018-12-10T00:14:16.474Z,91.80
2018-12-10T00:16:23.462Z,92.10
2018-12-10T00:18:30.650Z,92.20
2018-12-10T00:20:37.155Z,91.60
2018-12-10T00:22:43.558Z,91.60
2018-12-10T00:24:51.110Z,91.60
2018-12-10T00:26:58.106Z,91.50
2018-12-10T00:29:05.712Z,91.50
2018-12-10T00:31:11.190Z,91.50
2018-12-10T00:33:17.058Z,91.60
2018-12-10T00:35:23.082Z,91.40
2018-12-10T00:37:30.762Z,91.10
2018-12-10T00:39:35.990Z,91.40
2018-12-10T00:41:40.426Z,91.40
2018-12-10T00:43:46.421Z,90.80
2018-12-10T00:45:50.344Z,91.10
2018-12-10T00:47:56.069Z,90.80
2018-12-10T00:50:01.657Z,90.80
2018-12-10T00:52:05.874Z,90.60
2018-12-10T00:54:12.294Z,90.50
2018-12-10T00:56:19.014Z,90.50
2018-12-10T00:58:25.293Z,90.40
2018-12-10T01:00:31.845Z,90.40
2018-12-10T01:02:38.246Z,90.40
2018-12-10T01:04:44.552Z,90.30
2018-12-10T01:06:51.755Z,90.20
2018-12-10T01:08:57.298Z,90.10
2018-12-10T01:11:06.245Z,90.40
2018-12-10T01:13:11.218Z,90.10
2018-12-10T01:15:16.417Z,90.60
2018-12-10T01:17:21.514Z,90.30
2018-12-10T01:19:27.880Z,90.50
2018-12-10T01:21:34.505Z,90.40
2018-12-10T01:23:41.052Z,90.20
2018-12-10T01:25:48.293Z,90.10
2018-12-10T01:27:56.958Z,90.30
2018-12-10T01:30:02.833Z,90.40
2018-12-10T01:32:07.557Z,90.40
2018-12-10T01:34:12.365Z,90.70
2018-12-10T01:36:16.609Z,90.40
2018-12-10T01:38:20.882Z,90.10
2018-12-10T01:40:26.790Z,90.70
2018-12-10T01:42:34.366Z,90.40
2018-12-10T01:44:43.185Z,90.30
2018-12-10T01:46:50.156Z,90.30
2018-12-10T01:48:59.225Z,90.30
2018-12-10T01:51:06.287Z,90.00
2018-12-10T01:53:16.473Z,89.90
2018-12-10T01:55:24.334Z,90.20
2018-12-10T01:57:32.267Z,90.30
2018-12-10T01:59:37.794Z,90.10
2018-12-10T02:01:43.814Z,89.70
2018-12-10T02:03:51.142Z,89.90
2018-12-10T02:05:58.250Z,90.20
2018-12-10T02:08:04.459Z,90.10
2018-12-10T02:10:09.516Z,90.00
2018-12-10T02:12:16.637Z,89.20
2018-12-10T02:14:23.313Z,90.20
2018-12-10T02:16:30.506Z,90.00
2018-12-10T02:18:38.629Z,89.70
2018-12-10T02:20:47.494Z,88.70
2018-12-10T02:22:55.238Z,89.00
2018-12-10T02:25:01.290Z,89.00
2018-12-10T02:27:07.557Z,88.90
2018-12-10T02:29:17.006Z,88.90
2018-12-10T02:31:22.505Z,88.90
2018-12-10T02:33:27.534Z,88.60
2018-12-10T02:35:32.525Z,88.70
2018-12-10T02:37:37.574Z,88.30
2018-12-10T02:39:45.224Z,88.70
2018-12-10T02:41:51.912Z,88.20
2018-12-10T02:43:57.877Z,89.30
2018-12-10T02:46:08.590Z,89.50
2018-12-10T02:48:15.308Z,88.80
2018-12-10T02:50:19.782Z,88.40
2018-12-10T02:52:26.494Z,88.70
2018-12-10T02:54:33.453Z,88.80
2018-12-10T02:56:42.386Z,88.50
2018-12-10T02:58:50.890Z,88.40
2018-12-10T03:00:57.675Z,88.10
2018-12-10T03:03:04.203Z,87.50
2018-12-10T03:05:11.400Z,87.60
2018-12-10T03:07:17.483Z,87.70
2018-12-10T03:09:23.923Z,87.90
2018-12-10T03:11:28.801Z,87.80
2018-12-10T03:13:33.703Z,87.60
2018-12-10T03:15:39.777Z,87.40
2018-12-10T03:17:44.698Z,86.90
2018-12-10T03:19:49.679Z,87.00
2018-12-10T03:21:57.442Z,86.60
2018-12-10T03:24:04.831Z,86.40
2018-12-10T03:26:11.961Z,87.10
2018-12-10T03:28:17.851Z,87.30
2018-12-10T03:30:24.577Z,86.80
2018-12-10T03:32:30.667Z,87.10
2018-12-10T03:34:35.018Z,88.50
2018-12-10T03:36:39.466Z,88.20
2018-12-10T03:38:47.466Z,87.20
2018-12-10T03:40:53.670Z,87.50
2018-12-10T03:43:00.194Z,87.40
2018-12-10T03:45:06.213Z,87.40
2018-12-10T03:47:12.457Z,87.30
2018-12-10T03:49:17.070Z,88.20
2018-12-10T03:51:22.077Z,88.20
2018-12-10T03:53:27.823Z,88.50
2018-12-10T03:55:35.310Z,88.30
2018-12-10T03:57:41.767Z,88.20
2018-12-10T03:59:49.682Z,88.60
2018-12-10T04:01:56.870Z,87.50
2018-12-10T04:04:03.066Z,88.60
2018-12-10T04:06:09.711Z,88.80
2018-12-10T04:08:17.313Z,88.40
2018-12-10T04:10:23.974Z,88.50
2018-12-10T04:12:31.600Z,87.70
2018-12-10T04:14:41.535Z,88.70
2018-12-10T04:16:49.035Z,88.50
2018-12-10T04:18:56.521Z,88.90
2018-12-10T04:21:03.519Z,89.30
2018-12-10T04:23:09.371Z,88.60
2018-12-10T04:25:17.303Z,89.50
2018-12-10T04:27:22.187Z,90.10
2018-12-10T04:29:28.847Z,90.00
2018-12-10T04:31:36.425Z,89.20
2018-12-10T04:33:42.341Z,89.30
2018-12-10T04:35:48.614Z,89.20
2018-12-10T04:37:54.823Z,89.10
2018-12-10T04:40:02.126Z,90.10
2018-12-10T04:42:07.006Z,89.40
2018-12-10T04:44:13.245Z,89.80
2018-12-10T04:46:19.717Z,88.90
2018-12-10T04:48:25.708Z,88.80
2018-12-10T04:50:31.757Z,89.50
2018-12-10T04:52:37.106Z,88.60
2018-12-10T04:54:41.615Z,88.70
2018-12-10T04:56:47.375Z,89.30
2018-12-10T04:58:52.330Z,90.00
2018-12-10T05:00:59.238Z,89.80
2018-12-10T05:03:04.673Z,89.80
2018-12-10T05:05:12.107Z,89.90
2018-12-10T05:07:17.822Z,90.40
2018-12-10T05:09:24.693Z,89.50
2018-12-10T05:11:30.334Z,90.00
2018-12-10T05:13:35.621Z,89.90
2018-12-10T05:15:42.889Z,89.30
2018-12-10T05:17:50.242Z,89.60
2018-12-10T05:19:57.694Z,89.80
2018-12-10T05:22:04.878Z,89.90
2018-12-10T05:24:09.613Z,90.20
2018-12-10T05:26:15.517Z,90.20
2018-12-10T05:28:23.685Z,90.10
2018-12-10T05:30:30.458Z,89.30
2018-12-10T05:32:36.522Z,89.20
2018-12-10T05:34:43.049Z,89.40
2018-12-10T05:36:49.678Z,89.10
2018-12-10T05:38:55.753Z,88.70
2018-12-10T05:41:01.426Z,89.00
2018-12-10T05:43:07.914Z,88.50
2018-12-10T05:45:14.730Z,88.50
2018-12-10T05:47:19.619Z,89.00
2018-12-10T05:49:24.439Z,89.50
2018-12-10T05:51:31.151Z,89.10
2018-12-10T05:53:37.550Z,87.90
2018-12-10T05:55:44.352Z,88.60
2018-12-10T05:57:49.717Z,87.20
2018-12-10T05:59:57.163Z,87.90
2018-12-10T06:02:04.406Z,87.70
2018-12-10T06:04:10.878Z,87.80
2018-12-10T06:06:18.469Z,86.70
2018-12-10T06:08:25.514Z,85.80
2018-12-10T06:10:31.100Z,86.30
2018-12-10T06:12:36.790Z,86.60
2018-12-10T06:14:44.296Z,87.20
2018-12-10T06:16:50.858Z,86.40
2018-12-10T06:18:57.962Z,87.60
2018-12-10T06:21:05.638Z,86.30
2018-12-10T06:23:12.938Z,86.90
2018-12-10T06:25:19.757Z,87.70
2018-12-10T06:27:23.945Z,87.50
2018-12-10T06:29:31.366Z,86.70
2018-12-10T06:31:36.906Z,88.00
2018-12-10T06:33:40.850Z,86.20
2018-12-10T06:35:46.101Z,86.40
2018-12-10T06:37:52.253Z,86.10
2018-12-10T06:39:58.887Z,87.70
2018-12-10T06:42:06.025Z,87.20
2018-12-10T06:44:12.966Z,86.80
2018-12-10T06:46:19.330Z,87.30
2018-12-10T06:48:26.344Z,86.80
2018-12-10T06:50:34.085Z,87.70
2018-12-10T06:52:41.098Z,88.10
2018-12-10T06:54:47.321Z,86.70
2018-12-10T06:56:51.836Z,86.00
2018-12-10T06:58:58.181Z,86.80
2018-12-10T07:01:06.928Z,87.70
2018-12-10T07:03:14.089Z,87.00
2018-12-10T07:05:20.183Z,86.60
2018-12-10T07:07:29.269Z,88.10
2018-12-10T07:09:35.333Z,88.10
2018-12-10T07:11:42.129Z,88.30
2018-12-10T07:13:49.710Z,87.00
2018-12-10T07:15:56.165Z,88.50
2018-12-10T07:18:02.215Z,88.20
2018-12-10T07:20:08.241Z,87.60
2018-12-10T07:22:13.092Z,86.70
2018-12-10T07:24:19.090Z,87.10
2018-12-10T07:26:25.478Z,87.20
2018-12-10T07:28:37.838Z,87.40
2018-12-10T07:30:42.681Z,87.00
2018-12-10T07:32:48.300Z,88.70
2018-12-10T07:34:55.516Z,88.10
2018-12-10T07:37:02.366Z,88.20
2018-12-10T07:39:10.861Z,88.10
2018-12-10T07:41:18.853Z,88.30
2018-12-10T07:43:25.381Z,88.70
2018-12-10T07:45:31.217Z,87.80
2018-12-10T07:47:37.781Z,87.70
2018-12-10T07:49:45.236Z,86.80
2018-12-10T07:51:52.173Z,87.40
2018-12-10T07:53:59.943Z,87.20
2018-12-10T07:56:05.402Z,88.30
2018-12-10T07:58:12.298Z,87.60
2018-12-10T08:00:17.935Z,88.00
2018-12-10T08:02:25.222Z,87.00
2018-12-10T08:04:32.593Z,87.30
2018-12-10T08:06:40.166Z,87.40
2018-12-10T08:08:50.422Z,87.70
2018-12-10T08:10:56.555Z,88.00
2018-12-10T08:13:02.535Z,89.30
2018-12-10T08:15:07.705Z,88.70
2018-12-10T08:17:12.982Z,88.20
2018-12-10T08:19:19.290Z,89.30
2018-12-10T08:21:26.454Z,88.30
2018-12-10T08:23:33.985Z,88.00
2018-12-10T08:25:40.582Z,89.10
2018-12-10T08:27:47.561Z,89.10
2018-12-10T08:29:54.750Z,88.80
2018-12-10T08:32:00.277Z,88.80
2018-12-10T08:34:04.773Z,88.50
2018-12-10T08:36:11.473Z,87.70
2018-12-10T08:38:18.578Z,88.40
2018-12-10T08:40:26.006Z,87.30
2018-12-10T08:42:32.026Z,88.70
2018-12-10T08:44:36.786Z,88.00
2018-12-10T08:46:43.019Z,87.30
2018-12-10T08:48:50.022Z,86.70
2018-12-10T08:50:56.253Z,87.80
2018-12-10T08:53:04.046Z,87.20
2018-12-10T08:55:09.131Z,88.00
2018-12-10T08:57:15.963Z,88.60
2018-12-10T08:59:22.266Z,89.10
2018-12-10T09:01:29.642Z,88.30
2018-12-10T09:03:37.566Z,88.10
2018-12-10T09:05:44.860Z,88.60
2018-12-10T09:07:50.909Z,87.60
2018-12-10T09:09:55.842Z,88.20
2018-12-10T09:12:00.397Z,88.50
2018-12-10T09:14:07.596Z,88.00
2018-12-10T09:16:14.058Z,87.80
2018-12-10T09:18:19.947Z,88.30
2018-12-10T09:20:25.515Z,88.30
2018-12-10T09:22:32.557Z,87.50
2018-12-10T09:24:43.663Z,87.60
2018-12-10T09:26:51.465Z,87.70
2018-12-10T09:28:58.478Z,87.40
2018-12-10T09:31:03.329Z,88.10
2018-12-10T09:33:08.923Z,87.50
2018-12-10T09:35:14.919Z,87.80
2018-12-10T09:37:20.485Z,87.60
2018-12-10T09:39:24.505Z,87.00
2018-12-10T09:41:29.995Z,86.80
2018-12-10T09:43:34.401Z,87.00
2018-12-10T09:45:39.289Z,87.30
2018-12-10T09:47:45.963Z,87.00
2018-12-10T09:49:54.012Z,87.10
2018-12-10T09:52:01.159Z,86.90
2018-12-10T09:54:06.378Z,85.60
2018-12-10T09:56:12.459Z,86.20
2018-12-10T09:58:18.945Z,85.70
2018-12-10T10:00:26.434Z,85.90
2018-12-10T10:02:32.233Z,85.50
2018-12-10T10:04:37.262Z,84.50
2018-12-10T10:06:43.929Z,84.90
2018-12-10T10:08:49.611Z,85.00
2018-12-10T10:11:00.125Z,85.90
2018-12-10T10:13:07.241Z,85.70
2018-12-10T10:15:12.503Z,85.20
2018-12-10T10:17:18.530Z,84.90
2018-12-10T10:19:24.139Z,84.30
2018-12-10T10:21:31.297Z,85.00
2018-12-10T10:23:38.185Z,84.40
2018-12-10T10:25:43.618Z,85.70
2018-12-10T10:27:48.194Z,84.50
2018-12-10T10:29:54.071Z,83.30
2018-12-10T10:32:01.463Z,82.20
2018-12-10T10:34:08.298Z,81.50
2018-12-10T10:36:15.947Z,81.50
2018-12-10T10:38:23.278Z,81.50
2018-12-10T10:40:28.517Z,81.10
2018-12-10T10:42:34.766Z,81.10
2018-12-10T10:44:43.243Z,82.00
2018-12-10T10:46:50.608Z,82.30
2018-12-10T10:48:57.679Z,82.90
2018-12-10T10:51:02.451Z,80.50
2018-12-10T10:53:10.154Z,78.80
2018-12-10T10:55:16.390Z,77.60
2018-12-10T10:57:22.790Z,77.20
2018-12-10T10:59:28.680Z,76.40
2018-12-10T11:03:45.805Z,76.40
2018-12-10T11:05:52.598Z,76.30
2018-12-10T11:07:58.607Z,77.00
2018-12-10T11:10:05.794Z,77.00
2018-12-10T11:12:11.254Z,76.10
2018-12-10T11:14:18.653Z,75.50
2018-12-10T11:16:24.064Z,75.50
2018-12-10T11:18:28.591Z,76.10
2018-12-10T11:20:34.651Z,77.20
2018-12-10T11:22:40.510Z,77.80
2018-12-10T11:24:44.853Z,78.50
2018-12-10T11:26:49.136Z,78.50
2018-12-10T11:28:53.839Z,78.50
2018-12-10T11:30:59.938Z,78.60
2018-12-10T11:33:04.959Z,79.70
2018-12-10T11:35:09.626Z,79.30
2018-12-10T11:37:15.331Z,79.70
2018-12-10T11:39:20.173Z,80.00
2018-12-10T11:41:25.027Z,79.50
2018-12-10T11:43:31.755Z,80.30
2018-12-10T11:45:38.891Z,79.90
2018-12-10T11:47:45.919Z,78.80
2018-12-10T11:49:53.078Z,79.30
2018-12-10T11:51:57.886Z,80.50
2018-12-10T11:54:05.623Z,79.90
2018-12-10T11:56:12.746Z,79.90
2018-12-10T11:58:19.025Z,80.40
2018-12-10T12:00:25.711Z,80.40
2018-12-10T12:02:32.870Z,80.60
2018-12-10T12:04:39.173Z,80.80
2018-12-10T12:06:45.999Z,80.40
2018-12-10T12:08:52.811Z,80.60
2018-12-10T12:10:59.625Z,81.00
2018-12-10T12:13:07.318Z,80.50
2018-12-10T12:15:17.095Z,80.60
2018-12-10T12:17:23.288Z,79.70
2018-12-10T12:19:29.357Z,81.60
2018-12-10T12:21:36.997Z,80.70
2018-12-10T12:23:43.782Z,80.60
2018-12-10T12:25:51.084Z,79.60
2018-12-10T12:27:58.218Z,80.90
2018-12-10T12:30:05.737Z,80.20
2018-12-10T12:32:12.854Z,78.60
2018-12-10T12:34:19.814Z,78.80
2018-12-10T12:36:27.334Z,79.10
2018-12-10T12:38:34.853Z,79.70
2018-12-10T12:40:40.909Z,77.80
2018-12-10T12:42:47.522Z,77.40
2018-12-10T12:44:53.264Z,78.90
2018-12-10T12:46:57.570Z,78.40
2018-12-10T12:49:09.063Z,78.40
2018-12-10T12:51:15.244Z,78.80
2018-12-10T12:53:21.862Z,79.60
2018-12-10T12:55:29.130Z,79.50
2018-12-10T12:57:36.255Z,79.90
2018-12-10T12:59:43.252Z,79.30
2018-12-10T13:01:50.190Z,79.80
2018-12-10T13:03:56.682Z,79.30
2018-12-10T13:06:06.829Z,80.30
2018-12-10T13:08:11.077Z,78.20
2018-12-10T13:10:16.750Z,75.00
2018-12-10T13:12:22.694Z,75.10
2018-12-10T13:14:30.792Z,74.20
2018-12-10T13:16:37.720Z,74.40
2018-12-10T13:18:44.411Z,74.60
2018-12-10T13:20:49.195Z,76.10
2018-12-10T13:23:04.958Z,77.00
2018-12-10T13:25:12.722Z,76.40
2018-12-10T13:27:20.169Z,76.70
2018-12-10T13:29:31.181Z,77.90
2018-12-10T13:31:35.766Z,78.10
2018-12-10T13:33:42.122Z,78.10
2018-12-10T13:35:51.017Z,78.50
2018-12-10T13:37:59.050Z,78.90
2018-12-10T13:40:05.242Z,80.10
2018-12-10T13:42:09.814Z,80.00
2018-12-10T13:44:16.278Z,80.20
2018-12-10T13:46:23.630Z,80.90
2018-12-10T13:48:30.058Z,81.40
2018-12-10T13:50:36.429Z,80.60
2018-12-10T13:52:43.068Z,81.30
2018-12-10T13:54:48.698Z,80.70
2018-12-10T13:56:53.829Z,81.70
2018-12-10T13:59:00.458Z,81.70
2018-12-10T14:01:05.289Z,81.30
2018-12-10T14:03:09.228Z,82.40
2018-12-10T14:05:17.659Z,81.90
2018-12-10T14:07:25.190Z,82.40
2018-12-10T14:09:32.538Z,83.20
2018-12-10T14:11:40.614Z,83.40
2018-12-10T14:13:47.653Z,83.00
2018-12-10T14:15:54.538Z,83.00
2018-12-10T14:18:01.653Z,83.60
2018-12-10T14:20:11.197Z,83.60
2018-12-10T14:22:17.674Z,84.20
2018-12-10T14:24:25.875Z,85.10
2018-12-10T14:26:30.924Z,84.20
2018-12-10T14:28:36.555Z,84.40
2018-12-10T14:30:42.854Z,85.30
2018-12-10T14:32:47.073Z,85.60
2018-12-10T14:34:52.425Z,85.00
2018-12-10T14:36:59.813Z,84.60
2018-12-10T14:39:10.630Z,85.40
2018-12-10T14:41:16.849Z,84.80
2018-12-10T14:43:23.649Z,85.30
2018-12-10T14:45:31.026Z,86.30
2018-12-10T14:47:37.957Z,86.10
2018-12-10T14:49:45.046Z,86.10
2018-12-10T14:51:51.743Z,85.00
2018-12-10T14:53:58.789Z,85.70
2018-12-10T14:56:09.929Z,85.50
2018-12-10T14:58:21.349Z,85.30
2018-12-10T15:00:28.038Z,85.80
2018-12-10T15:02:33.093Z,85.80
2018-12-10T15:04:38.638Z,85.70
2018-12-10T15:06:45.774Z,86.00
2018-12-10T15:08:54.167Z,85.90
2018-12-10T15:11:02.122Z,85.90
2018-12-10T15:13:07.370Z,85.90
2018-12-10T15:15:12.013Z,86.00
2018-12-10T15:17:18.886Z,86.60
2018-12-10T15:19:25.365Z,85.80
2018-12-10T15:21:31.687Z,84.90
2018-12-10T15:23:38.949Z,85.40
2018-12-10T15:25:45.321Z,85.70
2018-12-10T15:27:52.165Z,86.10
2018-12-10T15:29:58.182Z,86.10
2018-12-10T15:32:04.870Z,86.50
2018-12-10T15:34:11.038Z,85.40
2018-12-10T15:36:16.233Z,86.00
2018-12-10T15:38:23.184Z,85.80
2018-12-10T15:40:31.627Z,85.90
2018-12-10T15:42:37.765Z,85.70
2018-12-10T15:44:42.649Z,86.30
2018-12-10T15:46:48.873Z,86.10
2018-12-10T15:48:55.450Z,85.70
2018-12-10T15:51:01.893Z,86.40
2018-12-10T15:53:08.392Z,86.10
2018-12-10T15:55:15.377Z,85.10
2018-12-10T15:57:21.941Z,85.60
2018-12-10T15:59:28.998Z,85.40
2018-12-10T16:01:34.725Z,86.70
2018-12-10T16:03:39.826Z,85.90
2018-12-10T16:05:46.729Z,85.30
2018-12-10T16:07:53.155Z,85.40
2018-12-10T16:09:59.118Z,85.70
2018-12-10T16:12:05.550Z,85.30
2018-12-10T16:14:12.231Z,85.80
2018-12-10T16:16:17.681Z,85.70
2018-12-10T16:18:23.681Z,86.10
2018-12-10T16:20:29.617Z,85.90
2018-12-10T16:22:39.088Z,85.90
2018-12-10T16:24:46.058Z,85.80
2018-12-10T16:26:52.055Z,85.80
2018-12-10T16:29:00.326Z,86.10
2018-12-10T16:31:07.624Z,85.80
2018-12-10T16:33:15.466Z,85.20
2018-12-10T16:35:21.482Z,85.70
2018-12-10T16:37:28.787Z,85.40
2018-12-10T16:41:45.805Z,85.40
2018-12-10T16:43:52.342Z,85.80
2018-12-10T16:45:58.221Z,85.10
2018-12-10T16:48:02.566Z,85.50
2018-12-10T16:50:13.846Z,85.20
2018-12-10T16:52:19.702Z,84.90
2018-12-10T16:54:24.035Z,85.20
2018-12-10T16:56:31.587Z,85.40
2018-12-10T16:58:39.142Z,85.40
2018-12-10T17:00:45.690Z,85.00
2018-12-10T17:02:51.926Z,84.30
2018-12-10T17:04:58.699Z,84.80
2018-12-10T17:07:09.958Z,85.30
2018-12-10T17:09:16.130Z,85.50
2018-12-10T17:11:23.333Z,84.80
2018-12-10T17:13:28.687Z,84.70
2018-12-10T17:15:33.501Z,86.20
2018-12-10T17:17:40.554Z,84.20
2018-12-10T17:19:46.006Z,86.10
2018-12-10T17:21:52.318Z,86.40
2018-12-10T17:23:56.202Z,86.40
2018-12-10T17:26:00.817Z,86.30
2018-12-10T17:28:07.494Z,85.70
2018-12-10T17:30:14.437Z,85.80
2018-12-10T17:32:21.574Z,86.00
2018-12-10T17:34:26.982Z,85.30
2018-12-10T17:36:33.122Z,87.90
2018-12-10T17:38:39.014Z,88.50
2018-12-10T17:40:45.610Z,88.70
2018-12-10T17:42:51.011Z,88.10
2018-12-10T17:44:57.707Z,83.60
2018-12-10T17:47:08.770Z,84.40
2018-12-10T17:49:16.353Z,84.30
2018-12-10T17:51:21.061Z,85.00
2018-12-10T17:53:27.879Z,84.60
2018-12-10T17:55:34.725Z,85.20
2018-12-10T17:57:41.396Z,85.80
2018-12-10T17:59:49.293Z,86.00
2018-12-10T18:01:55.101Z,86.10
2018-12-10T18:04:01.957Z,86.20
2018-12-10T18:06:07.702Z,85.80
2018-12-10T18:08:12.069Z,86.20
2018-12-10T18:10:18.180Z,86.90
2018-12-10T18:12:25.893Z,87.70
2018-12-10T18:14:33.701Z,87.00
2018-12-10T18:16:40.666Z,86.40
2018-12-10T18:18:47.969Z,87.30
2018-12-10T18:21:01.430Z,87.90
2018-12-10T18:23:08.833Z,86.70
2018-12-10T18:25:13.297Z,86.90
2018-12-10T18:27:18.478Z,87.70
2018-12-10T18:29:22.549Z,87.70
2018-12-10T18:31:28.283Z,87.20
2018-12-10T18:33:34.981Z,87.40
2018-12-10T18:35:44.377Z,87.20
2018-12-10T18:37:51.246Z,88.40
2018-12-10T18:39:57.362Z,87.60
2018-12-10T18:42:04.890Z,87.90
2018-12-10T18:44:12.471Z,88.50
2018-12-10T18:46:19.718Z,88.60
2018-12-10T18:48:27.207Z,87.40
2018-12-10T18:50:33.226Z,86.50
2018-12-10T18:52:41.143Z,86.50
2018-12-10T18:54:48.270Z,84.80
2018-12-10T18:56:55.470Z,84.30
2018-12-10T18:59:02.141Z,84.10
2018-12-10T19:01:09.077Z,85.10
2018-12-10T19:03:19.561Z,85.00
2018-12-10T19:05:29.415Z,85.60
2018-12-10T19:07:38.949Z,85.50
2018-12-10T19:09:45.538Z,85.70
2018-12-10T19:11:50.633Z,85.50
2018-12-10T19:13:58.253Z,83.90
2018-12-10T19:16:03.746Z,83.00
2018-12-10T19:18:09.779Z,82.60
2018-12-10T19:20:19.291Z,82.80
2018-12-10T19:22:27.633Z,82.40
2018-12-10T19:24:34.626Z,81.70
2018-12-10T19:26:40.900Z,81.60
2018-12-10T19:28:48.053Z,81.30
2018-12-10T19:30:55.225Z,81.10
2018-12-10T19:33:02.953Z,80.00
2018-12-10T19:35:11.525Z,79.80
2018-12-10T19:37:16.430Z,79.60
2018-12-10T19:39:24.010Z,79.50
2018-12-10T19:41:30.347Z,79.20
2018-12-10T19:43:39.274Z,79.10
2018-12-10T19:45:46.862Z,78.00
2018-12-10T19:47:52.110Z,78.70
2018-12-10T19:49:57.872Z,78.20
2018-12-10T19:52:03.384Z,77.20
2018-12-10T19:54:06.969Z,77.50
2018-12-10T19:56:14.374Z,76.80
2018-12-10T19:58:19.557Z,77.00
2018-12-10T20:00:24.831Z,76.80
2018-12-10T20:02:31.000Z,76.20
2018-12-10T20:04:38.084Z,76.60
2018-12-10T20:06:48.933Z,76.80
2018-12-10T20:08:55.365Z,77.30
2018-12-10T20:11:00.645Z,77.50
2018-12-10T20:13:06.070Z,78.30
2018-12-10T20:15:10.295Z,78.20
2018-12-10T20:17:15.307Z,78.60
2018-12-10T20:19:21.766Z,79.00
2018-12-10T20:21:26.925Z,79.00
2018-12-10T20:23:34.246Z,79.20
2018-12-10T20:25:41.233Z,79.80
2018-12-10T20:27:47.441Z,80.80
2018-12-10T20:29:53.009Z,80.70
2018-12-10T20:32:00.212Z,82.50
2018-12-10T20:34:07.339Z,83.70
2018-12-10T20:36:14.448Z,84.50
2018-12-10T20:38:19.766Z,85.20
2018-12-10T20:40:26.438Z,86.40
2018-12-10T20:42:33.802Z,86.60
2018-12-10T20:44:40.522Z,87.60
2018-12-10T20:46:48.058Z,87.80
2018-12-10T20:48:54.759Z,88.40
2018-12-10T20:51:02.246Z,88.90
2018-12-10T20:53:08.875Z,89.00
2018-12-10T20:55:13.117Z,89.40
2018-12-10T20:57:18.684Z,89.70
2018-12-10T20:59:26.120Z,90.30
2018-12-10T21:01:31.204Z,90.30
2018-12-10T21:03:35.240Z,90.40
2018-12-10T21:05:43.515Z,90.40
2018-12-10T21:07:47.918Z,90.30
2018-12-10T21:09:53.900Z,90.60
2018-12-10T21:12:00.654Z,90.50
2018-12-10T21:14:08.390Z,90.30
2018-12-10T21:16:14.538Z,90.50
2018-12-10T21:18:24.359Z,90.10
2018-12-10T21:20:32.073Z,90.20
2018-12-10T21:22:37.806Z,90.10
2018-12-10T21:24:44.835Z,90.20
2018-12-10T21:26:51.816Z,90.40
2018-12-10T21:28:58.774Z,89.80
2018-12-10T21:31:08.105Z,90.00
2018-12-10T21:33:15.022Z,89.70
2018-12-10T21:35:20.996Z,89.70
2018-12-10T21:37:27.377Z,89.10
2018-12-10T21:39:34.178Z,89.60
2018-12-10T21:41:39.118Z,88.80
2018-12-10T21:43:43.174Z,88.90
2018-12-10T21:45:49.178Z,88.70
2018-12-10T21:47:55.654Z,89.00
2018-12-10T21:50:02.230Z,88.70
2018-12-10T21:52:11.258Z,88.20
2018-12-10T21:54:18.313Z,88.20
2018-12-10T21:56:25.237Z,88.30
2018-12-10T21:58:31.093Z,88.60
2018-12-10T22:00:38.218Z,88.10
2018-12-10T22:02:44.202Z,87.20
2018-12-10T22:04:51.189Z,86.60
2018-12-10T22:06:57.879Z,86.40
2018-12-10T22:09:07.205Z,86.60
2018-12-10T22:11:14.213Z,85.80
2018-12-10T22:13:21.461Z,86.50
2018-12-10T22:15:26.368Z,85.90
2018-12-10T22:17:31.614Z,86.50
2018-12-10T22:19:38.824Z,86.10
2018-12-10T22:21:44.509Z,85.90
2018-12-10T22:23:51.414Z,86.40
2018-12-10T22:25:57.146Z,86.80
2018-12-10T22:28:02.241Z,86.90
2018-12-10T22:30:09.233Z,86.70
2018-12-10T22:32:15.311Z,87.60
2018-12-10T22:34:22.634Z,87.90
2018-12-10T22:36:28.685Z,87.70
2018-12-10T22:38:33.717Z,88.50
2018-12-10T22:40:38.025Z,89.10
2018-12-10T22:42:43.294Z,89.50
2018-12-10T22:44:52.110Z,90.20
2018-12-10T22:46:59.302Z,90.40
2018-12-10T22:49:05.545Z,90.20
2018-12-10T22:51:16.526Z,90.50
2018-12-10T22:53:23.246Z,90.60
2018-12-10T22:55:29.505Z,90.80
2018-12-10T22:57:36.638Z,90.80
2018-12-10T22:59:44.871Z,90.80
2018-12-10T23:01:52.230Z,90.80
2018-12-10T23:03:59.331Z,90.80
2018-12-10T23:06:06.473Z,91.10
2018-12-10T23:08:12.265Z,91.00
2018-12-10T23:10:17.544Z,91.20
2018-12-10T23:12:24.502Z,91.00
2018-12-10T23:14:32.274Z,91.10
2018-12-10T23:16:38.670Z,91.00
2018-12-10T23:18:45.660Z,91.10
2018-12-10T23:20:53.306Z,90.90
2018-12-10T23:23:00.057Z,90.90
2018-12-10T23:25:08.030Z,91.10
2018-12-10T23:27:15.279Z,91.00
2018-12-10T23:29:21.514Z,90.80
2018-12-10T23:31:27.769Z,90.80
2018-12-10T23:33:38.790Z,90.90
2018-12-10T23:35:45.920Z,90.60
2018-12-10T23:37:52.873Z,90.50
2018-12-10T23:40:00.390Z,90.40
2018-12-10T23:42:05.031Z,90.10
2018-12-10T23:44:12.863Z,90.10
2018-12-10T23:46:17.708Z,90.00
2018-12-10T23:48:22.813Z,89.50
2018-12-10T23:50:29.246Z,89.10
2018-12-10T23:52:34.815Z,89.70
2018-12-10T23:54:40.439Z,89.60
2018-12-10T23:56:46.469Z,88.70
2018-12-10T23:58:53.016Z,88.60
